KHDN/HDN METAR and TAF weather

Enter ICAO airport designator
Station Type Date Time Source
KHDN METAR 2019/06/27 07:56 UTC NOAA

KHDN 270756Z AUTO 10008KT 10SM CLR 11/02 A3018 RMK AO2 SLP145 T01060022


Station Type Date Time Source
KHDN Decoded METAR 2019/06/27 07:56 UTC NOAA

Hayden, Yampa Valley Airport, CO, United States (KHDN) 40-29N 107-13W
Jun 27, 2019 - 03:56 AM EDT / 2019.06.27 0756 UTC
Wind: from the E (100 degrees) at 9 MPH (8 KT):0
Visibility: 10 mile(s):0
Sky conditions: clear
Temperature: 51.1 F (10.6 C)
Dew Point: 36.0 F (2.2 C)
Relative Humidity: 56%
Pressure (altimeter): 30.18 in. Hg (1022 hPa)
ob: KHDN 270756Z AUTO 10008KT 10SM CLR 11/02 A3018 RMK AO2 SLP145 T01060022
cycle: 8

Station Type Date Time Source
KHDN TAF 2019/06/27 06:45 UTC NOAA

TAF KHDN 270541Z 2706/2806 12003KT P6SM SKC
FM271600 15010KT P6SM SKC
FM271800 23011KT P6SM SKC
FM272000 23013G21KT P6SM FEW100 FEW250
FM280000 24013KT P6SM FEW100 FEW250

Example: see airport list